YCFS Airport Information

Runway Information
Airport Frequencies
Airport Navaids
Airport Weather Information & NOTAM
ADDS - METARS form results

(2305 UTC 27 November 2021)
Data provider http://aviationweather.gov/metar/data/
 
METAR text: YCFS 272300Z AUTO 19015KT 9999 // OVC043 22/16 Q1019 RF00.0/000.0
Conditions at: YCFS (COFFS HARBOUR , AU) observed 2300 UTC 27 November 2021
Temperature: 22.0°C (72°F)
Dewpoint: 16.0°C (61°F) [RH = 69%]
Pressure (altimeter): 30.09 inches Hg (1019.0 mb)
Winds: from the S (190 degrees) at 17 MPH (15 knots; 7.7 m/s)
Visibility: 6 or more miles (10+ km)
Ceiling: 4300 feet AGL
Clouds: overcast cloud deck at 4300 feet AGL
Weather: no significant weather observed at this time

METAR text: YCFS 272230Z AUTO 19015KT 9999 // SCT025 SCT041 22/16 Q1019
Conditions at: YCFS (COFFS HARBOUR , AU) observed 2230 UTC 27 November 2021
Temperature: 22.0°C (72°F)
Dewpoint: 16.0°C (61°F) [RH = 69%]
Pressure (altimeter): 30.09 inches Hg (1019.0 mb)
Winds: from the S (190 degrees) at 17 MPH (15 knots; 7.7 m/s)
Visibility: 6 or more miles (10+ km)
Ceiling: at least 12,000 feet AGL
Clouds: scattered clouds at 2500 feet AGL
scattered clouds at 4100 feet AGL
Weather: no significant weather observed at this time

Forecast for: AMD
Text: TAF AMD YCFS 272238Z 2800/2900 18016KT 9999 -SHRA SCT025 BKN040
Forecast period: 0000 to 0900 UTC 28 November 2021
Forecast type: FROM: standard forecast or significant change
Winds: from the S (180 degrees) at 18 MPH (16 knots; 8.2 m/s)
Visibility: 6 or more miles (10+ km)
Ceiling: 4000 feet AGL
Clouds: scattered clouds at 2500 feet AGL
broken clouds at 4000 feet AGL
Weather: -SHRA  (light rain showers)
Text: FM280900 23008KT 9999 -SHRA SCT015 BKN025 INTER 2809/2900 4000 SHRA BKN012
Forecast period: 0900 UTC 28 November 2021 to 0000 UTC 29 November 2021
Forecast type: FROM: standard forecast or significant change
Winds: from the SW (230 degrees) at 9 MPH (8 knots; 4.1 m/s)
Visibility: 6 or more miles (10+ km)
Ceiling: 2500 feet AGL
Clouds: scattered clouds at 1500 feet AGL
broken clouds at 2500 feet AGL
Weather: -SHRA  (light rain showers)
Text:
Forecast period: 0900 UTC 28 November 2021 to 0000 UTC 29 November 2021
Forecast type: TEMPORARY: The following changes expected for less than half the time period
Visibility: 2.49 miles (4.01 km)
Ceiling: 1200 feet AGL
Clouds: broken clouds at 1200 feet AGL
Weather: SHRA  (rain showers)